sensor_id;sensor_type;location;lat;lon;timestamp;P1;durP1;ratioP1;P2;durP2;ratioP2
5646;SDS011;2845;48.626;9.362;2023-08-06T00:01:59;2.65;;;1.20;;
5646;SDS011;2845;48.626;9.362;2023-08-06T00:04:34;3.60;;;1.65;;
5646;SDS011;2845;48.626;9.362;2023-08-06T00:07:08;2.22;;;1.02;;
5646;SDS011;2845;48.626;9.362;2023-08-06T00:09:42;1.92;;;1.08;;
5646;SDS011;2845;48.626;9.362;2023-08-06T00:12:17;2.88;;;1.10;;
5646;SDS011;2845;48.626;9.362;2023-08-06T00:14:51;2.75;;;1.38;;
5646;SDS011;2845;48.626;9.362;2023-08-06T00:17:26;3.50;;;1.60;;
5646;SDS011;2845;48.626;9.362;2023-08-06T00:20:01;1.80;;;1.50;;
5646;SDS011;2845;48.626;9.362;2023-08-06T00:22:37;3.45;;;1.40;;
5646;SDS011;2845;48.626;9.362;2023-08-06T00:25:11;2.72;;;1.23;;
5646;SDS011;2845;48.626;9.362;2023-08-06T00:27:47;2.60;;;1.38;;
5646;SDS011;2845;48.626;9.362;2023-08-06T00:30:21;4.10;;;1.67;;
5646;SDS011;2845;48.626;9.362;2023-08-06T00:32:55;1.98;;;1.10;;
5646;SDS011;2845;48.626;9.362;2023-08-06T00:35:29;2.42;;;1.40;;
5646;SDS011;2845;48.626;9.362;2023-08-06T00:38:03;4.05;;;1.65;;
5646;SDS011;2845;48.626;9.362;2023-08-06T00:40:38;2.67;;;1.23;;
5646;SDS011;2845;48.626;9.362;2023-08-06T00:43:13;2.97;;;1.27;;
5646;SDS011;2845;48.626;9.362;2023-08-06T00:45:46;2.03;;;1.20;;
5646;SDS011;2845;48.626;9.362;2023-08-06T00:48:20;2.35;;;1.08;;
5646;SDS011;2845;48.626;9.362;2023-08-06T00:50:55;2.30;;;1.20;;
5646;SDS011;2845;48.626;9.362;2023-08-06T00:53:29;2.40;;;1.20;;
5646;SDS011;2845;48.626;9.362;2023-08-06T00:56:04;2.88;;;1.27;;
5646;SDS011;2845;48.626;9.362;2023-08-06T00:58:40;2.45;;;1.20;;
5646;SDS011;2845;48.626;9.362;2023-08-06T01:01:15;2.35;;;1.38;;
5646;SDS011;2845;48.626;9.362;2023-08-06T01:03:49;3.13;;;1.40;;
5646;SDS011;2845;48.626;9.362;2023-08-06T01:06:38;2.83;;;1.15;;
5646;SDS011;2845;48.626;9.362;2023-08-06T01:09:22;2.42;;;1.23;;
5646;SDS011;2845;48.626;9.362;2023-08-06T01:12:09;2.28;;;1.35;;
5646;SDS011;2845;48.626;9.362;2023-08-06T01:14:57;2.75;;;1.17;;
5646;SDS011;2845;48.626;9.362;2023-08-06T01:17:40;2.55;;;1.25;;
5646;SDS011;2845;48.626;9.362;2023-08-06T01:20:14;2.13;;;1.48;;
5646;SDS011;2845;48.626;9.362;2023-08-06T01:22:50;2.90;;;1.30;;
5646;SDS011;2845;48.626;9.362;2023-08-06T01:25:25;1.55;;;1.02;;
5646;SDS011;2845;48.626;9.362;2023-08-06T01:28:14;2.10;;;1.08;;
5646;SDS011;2845;48.626;9.362;2023-08-06T01:30:52;2.38;;;1.30;;
5646;SDS011;2845;48.626;9.362;2023-08-06T01:33:32;2.15;;;1.00;;
5646;SDS011;2845;48.626;9.362;2023-08-06T01:36:09;2.65;;;1.20;;
5646;SDS011;2845;48.626;9.362;2023-08-06T01:38:45;2.78;;;1.30;;
5646;SDS011;2845;48.626;9.362;2023-08-06T01:41:20;3.20;;;1.40;;
5646;SDS011;2845;48.626;9.362;2023-08-06T01:43:54;3.75;;;1.40;;
5646;SDS011;2845;48.626;9.362;2023-08-06T01:46:28;2.83;;;1.30;;
5646;SDS011;2845;48.626;9.362;2023-08-06T01:49:02;1.52;;;0.80;;
5646;SDS011;2845;48.626;9.362;2023-08-06T01:51:36;2.42;;;1.13;;
5646;SDS011;2845;48.626;9.362;2023-08-06T01:54:12;1.73;;;0.95;;
5646;SDS011;2845;48.626;9.362;2023-08-06T01:56:46;1.92;;;1.15;;
5646;SDS011;2845;48.626;9.362;2023-08-06T01:59:20;2.85;;;1.00;;
5646;SDS011;2845;48.626;9.362;2023-08-06T02:01:54;2.55;;;1.20;;
5646;SDS011;2845;48.626;9.362;2023-08-06T02:04:29;2.80;;;1.02;;
5646;SDS011;2845;48.626;9.362;2023-08-06T02:07:03;1.98;;;1.08;;
5646;SDS011;2845;48.626;9.362;2023-08-06T02:09:39;2.85;;;1.55;;
5646;SDS011;2845;48.626;9.362;2023-08-06T02:12:13;2.83;;;1.20;;
5646;SDS011;2845;48.626;9.362;2023-08-06T02:14:47;2.35;;;1.20;;
5646;SDS011;2845;48.626;9.362;2023-08-06T02:17:22;3.08;;;1.48;;
5646;SDS011;2845;48.626;9.362;2023-08-06T02:19:56;2.33;;;1.20;;
5646;SDS011;2845;48.626;9.362;2023-08-06T02:22:30;1.95;;;1.00;;
5646;SDS011;2845;48.626;9.362;2023-08-06T02:25:06;2.15;;;0.98;;
5646;SDS011;2845;48.626;9.362;2023-08-06T02:27:41;1.95;;;1.00;;
5646;SDS011;2845;48.626;9.362;2023-08-06T02:30:15;2.35;;;0.90;;
5646;SDS011;2845;48.626;9.362;2023-08-06T02:32:49;1.58;;;0.80;;
5646;SDS011;2845;48.626;9.362;2023-08-06T02:35:23;1.50;;;0.85;;
5646;SDS011;2845;48.626;9.362;2023-08-06T02:37:57;2.15;;;1.20;;
5646;SDS011;2845;48.626;9.362;2023-08-06T02:40:33;2.08;;;1.02;;
5646;SDS011;2845;48.626;9.362;2023-08-06T02:43:07;1.58;;;0.85;;
5646;SDS011;2845;48.626;9.362;2023-08-06T02:45:41;2.17;;;0.80;;
5646;SDS011;2845;48.626;9.362;2023-08-06T02:48:15;1.80;;;0.90;;
5646;SDS011;2845;48.626;9.362;2023-08-06T02:50:50;1.90;;;1.02;;
5646;SDS011;2845;48.626;9.362;2023-08-06T02:53:24;2.38;;;1.02;;
5646;SDS011;2845;48.626;9.362;2023-08-06T02:56:00;1.65;;;0.70;;
5646;SDS011;2845;48.626;9.362;2023-08-06T02:58:34;1.60;;;0.70;;
5646;SDS011;2845;48.626;9.362;2023-08-06T03:01:09;1.38;;;0.80;;
5646;SDS011;2845;48.626;9.362;2023-08-06T03:03:43;1.88;;;0.80;;
5646;SDS011;2845;48.626;9.362;2023-08-06T03:06:17;2.35;;;0.85;;
5646;SDS011;2845;48.626;9.362;2023-08-06T03:08:51;1.77;;;0.80;;
5646;SDS011;2845;48.626;9.362;2023-08-06T03:11:27;2.15;;;0.80;;
5646;SDS011;2845;48.626;9.362;2023-08-06T03:14:01;3.15;;;0.73;;
5646;SDS011;2845;48.626;9.362;2023-08-06T03:16:35;1.85;;;0.85;;
5646;SDS011;2845;48.626;9.362;2023-08-06T03:19:10;1.85;;;0.77;;
5646;SDS011;2845;48.626;9.362;2023-08-06T03:21:44;1.45;;;0.70;;
5646;SDS011;2845;48.626;9.362;2023-08-06T03:24:18;2.33;;;0.90;;
5646;SDS011;2845;48.626;9.362;2023-08-06T03:26:53;1.80;;;0.82;;
5646;SDS011;2845;48.626;9.362;2023-08-06T03:29:27;1.77;;;0.88;;
5646;SDS011;2845;48.626;9.362;2023-08-06T03:32:01;1.50;;;1.08;;
5646;SDS011;2845;48.626;9.362;2023-08-06T03:34:36;1.20;;;0.68;;
5646;SDS011;2845;48.626;9.362;2023-08-06T03:37:10;2.00;;;0.93;;
5646;SDS011;2845;48.626;9.362;2023-08-06T03:39:44;2.28;;;0.70;;
5646;SDS011;2845;48.626;9.362;2023-08-06T03:42:19;1.48;;;0.60;;
5646;SDS011;2845;48.626;9.362;2023-08-06T03:44:53;1.05;;;0.65;;
5646;SDS011;2845;48.626;9.362;2023-08-06T03:47:28;1.60;;;0.98;;
5646;SDS011;2845;48.626;9.362;2023-08-06T03:50:02;2.13;;;0.80;;
5646;SDS011;2845;48.626;9.362;2023-08-06T03:52:38;1.63;;;0.80;;
5646;SDS011;2845;48.626;9.362;2023-08-06T03:55:12;1.75;;;0.82;;
5646;SDS011;2845;48.626;9.362;2023-08-06T03:57:47;1.73;;;0.90;;
5646;SDS011;2845;48.626;9.362;2023-08-06T04:00:22;2.38;;;0.90;;
5646;SDS011;2845;48.626;9.362;2023-08-06T04:02:56;2.00;;;0.88;;
5646;SDS011;2845;48.626;9.362;2023-08-06T04:05:31;2.40;;;0.77;;
5646;SDS011;2845;48.626;9.362;2023-08-06T04:08:05;1.65;;;0.80;;
5646;SDS011;2845;48.626;9.362;2023-08-06T04:10:39;1.58;;;0.80;;
5646;SDS011;2845;48.626;9.362;2023-08-06T04:13:15;1.60;;;0.80;;
5646;SDS011;2845;48.626;9.362;2023-08-06T04:15:49;2.05;;;0.80;;
5646;SDS011;2845;48.626;9.362;2023-08-06T04:18:23;2.35;;;0.98;;
5646;SDS011;2845;48.626;9.362;2023-08-06T04:20:57;1.67;;;0.68;;
5646;SDS011;2845;48.626;9.362;2023-08-06T04:23:32;3.08;;;0.90;;
5646;SDS011;2845;48.626;9.362;2023-08-06T04:26:06;1.02;;;0.55;;
5646;SDS011;2845;48.626;9.362;2023-08-06T04:28:41;0.82;;;0.50;;
5646;SDS011;2845;48.626;9.362;2023-08-06T04:31:17;2.33;;;0.80;;
5646;SDS011;2845;48.626;9.362;2023-08-06T04:33:51;0.88;;;0.30;;
5646;SDS011;2845;48.626;9.362;2023-08-06T04:36:25;2.53;;;0.65;;
5646;SDS011;2845;48.626;9.362;2023-08-06T04:39:00;1.10;;;0.50;;
5646;SDS011;2845;48.626;9.362;2023-08-06T04:41:34;0.55;;;0.30;;
5646;SDS011;2845;48.626;9.362;2023-08-06T04:44:09;2.42;;;0.88;;
5646;SDS011;2845;48.626;9.362;2023-08-06T04:46:43;1.20;;;0.57;;
5646;SDS011;2845;48.626;9.362;2023-08-06T04:49:18;0.73;;;0.30;;
5646;SDS011;2845;48.626;9.362;2023-08-06T04:51:53;0.80;;;0.40;;
5646;SDS011;2845;48.626;9.362;2023-08-06T04:54:27;1.42;;;0.32;;
5646;SDS011;2845;48.626;9.362;2023-08-06T04:57:01;2.95;;;0.55;;
5646;SDS011;2845;48.626;9.362;2023-08-06T04:59:38;1.20;;;0.40;;
5646;SDS011;2845;48.626;9.362;2023-08-06T05:02:13;1.70;;;0.50;;
5646;SDS011;2845;48.626;9.362;2023-08-06T05:04:47;3.53;;;0.30;;
5646;SDS011;2845;48.626;9.362;2023-08-06T05:07:21;1.25;;;0.40;;
5646;SDS011;2845;48.626;9.362;2023-08-06T05:09:55;1.05;;;0.32;;
5646;SDS011;2845;48.626;9.362;2023-08-06T05:12:30;0.73;;;0.35;;
5646;SDS011;2845;48.626;9.362;2023-08-06T05:15:06;0.63;;;0.40;;
5646;SDS011;2845;48.626;9.362;2023-08-06T05:17:44;0.90;;;0.50;;
5646;SDS011;2845;48.626;9.362;2023-08-06T05:20:18;1.95;;;0.25;;
5646;SDS011;2845;48.626;9.362;2023-08-06T05:22:53;1.13;;;0.47;;
5646;SDS011;2845;48.626;9.362;2023-08-06T05:25:27;0.90;;;0.30;;
5646;SDS011;2845;48.626;9.362;2023-08-06T05:28:02;1.40;;;0.43;;
5646;SDS011;2845;48.626;9.362;2023-08-06T05:30:40;2.10;;;0.50;;
5646;SDS011;2845;48.626;9.362;2023-08-06T05:33:14;2.50;;;0.35;;
5646;SDS011;2845;48.626;9.362;2023-08-06T05:35:48;1.30;;;0.50;;
5646;SDS011;2845;48.626;9.362;2023-08-06T05:38:25;1.38;;;0.40;;
5646;SDS011;2845;48.626;9.362;2023-08-06T05:41:00;0.88;;;0.32;;
5646;SDS011;2845;48.626;9.362;2023-08-06T05:43:34;0.60;;;0.20;;
5646;SDS011;2845;48.626;9.362;2023-08-06T05:46:10;0.35;;;0.20;;
5646;SDS011;2845;48.626;9.362;2023-08-06T05:48:44;0.73;;;0.30;;
5646;SDS011;2845;48.626;9.362;2023-08-06T05:51:18;1.83;;;0.30;;
5646;SDS011;2845;48.626;9.362;2023-08-06T05:53:52;0.50;;;0.30;;
5646;SDS011;2845;48.626;9.362;2023-08-06T05:56:26;1.30;;;0.30;;
5646;SDS011;2845;48.626;9.362;2023-08-06T05:59:02;0.85;;;0.30;;
5646;SDS011;2845;48.626;9.362;2023-08-06T06:01:37;0.80;;;0.30;;
5646;SDS011;2845;48.626;9.362;2023-08-06T06:04:13;0.30;;;0.20;;
5646;SDS011;2845;48.626;9.362;2023-08-06T06:06:48;1.02;;;0.20;;
5646;SDS011;2845;48.626;9.362;2023-08-06T06:09:22;1.17;;;0.20;;
5646;SDS011;2845;48.626;9.362;2023-08-06T06:11:57;1.85;;;0.52;;
5646;SDS011;2845;48.626;9.362;2023-08-06T06:14:31;0.90;;;0.30;;
5646;SDS011;2845;48.626;9.362;2023-08-06T06:17:07;0.75;;;0.20;;
5646;SDS011;2845;48.626;9.362;2023-08-06T06:19:44;0.90;;;0.30;;
5646;SDS011;2845;48.626;9.362;2023-08-06T06:22:19;1.50;;;0.30;;
5646;SDS011;2845;48.626;9.362;2023-08-06T06:24:53;0.73;;;0.20;;
5646;SDS011;2845;48.626;9.362;2023-08-06T06:27:27;2.10;;;0.40;;
5646;SDS011;2845;48.626;9.362;2023-08-06T06:30:01;1.13;;;0.38;;
5646;SDS011;2845;48.626;9.362;2023-08-06T06:32:37;0.38;;;0.20;;
5646;SDS011;2845;48.626;9.362;2023-08-06T06:35:13;0.98;;;0.22;;
5646;SDS011;2845;48.626;9.362;2023-08-06T06:37:47;0.50;;;0.20;;
5646;SDS011;2845;48.626;9.362;2023-08-06T06:40:22;1.83;;;0.20;;
5646;SDS011;2845;48.626;9.362;2023-08-06T06:42:56;1.58;;;0.60;;
5646;SDS011;2845;48.626;9.362;2023-08-06T06:45:32;0.75;;;0.20;;
5646;SDS011;2845;48.626;9.362;2023-08-06T06:48:08;1.13;;;0.10;;
5646;SDS011;2845;48.626;9.362;2023-08-06T06:50:42;1.20;;;0.20;;
5646;SDS011;2845;48.626;9.362;2023-08-06T06:53:20;1.20;;;0.30;;
5646;SDS011;2845;48.626;9.362;2023-08-06T06:56:01;0.98;;;0.20;;
5646;SDS011;2845;48.626;9.362;2023-08-06T06:58:40;0.63;;;0.20;;
5646;SDS011;2845;48.626;9.362;2023-08-06T07:01:16;0.10;;;0.10;;
5646;SDS011;2845;48.626;9.362;2023-08-06T07:03:52;0.52;;;0.32;;
5646;SDS011;2845;48.626;9.362;2023-08-06T07:06:29;0.40;;;0.20;;
5646;SDS011;2845;48.626;9.362;2023-08-06T07:09:03;0.15;;;0.10;;
5646;SDS011;2845;48.626;9.362;2023-08-06T07:11:38;0.85;;;0.13;;
5646;SDS011;2845;48.626;9.362;2023-08-06T07:14:14;0.40;;;0.22;;
5646;SDS011;2845;48.626;9.362;2023-08-06T07:16:48;0.25;;;0.25;;
5646;SDS011;2845;48.626;9.362;2023-08-06T07:19:25;0.85;;;0.20;;
5646;SDS011;2845;48.626;9.362;2023-08-06T07:21:59;0.52;;;0.20;;
5646;SDS011;2845;48.626;9.362;2023-08-06T07:24:33;0.20;;;0.10;;
5646;SDS011;2845;48.626;9.362;2023-08-06T07:27:08;0.25;;;0.13;;
5646;SDS011;2845;48.626;9.362;2023-08-06T07:29:42;0.40;;;0.17;;
5646;SDS011;2845;48.626;9.362;2023-08-06T07:32:17;0.52;;;0.25;;
5646;SDS011;2845;48.626;9.362;2023-08-06T07:34:54;1.55;;;0.10;;
5646;SDS011;2845;48.626;9.362;2023-08-06T07:37:32;0.50;;;0.13;;
5646;SDS011;2845;48.626;9.362;2023-08-06T07:40:10;0.25;;;0.10;;
5646;SDS011;2845;48.626;9.362;2023-08-06T07:42:45;0.10;;;0.10;;
5646;SDS011;2845;48.626;9.362;2023-08-06T07:45:19;0.88;;;0.10;;
5646;SDS011;2845;48.626;9.362;2023-08-06T07:47:53;0.30;;;0.20;;
5646;SDS011;2845;48.626;9.362;2023-08-06T07:50:29;0.47;;;0.10;;
5646;SDS011;2845;48.626;9.362;2023-08-06T07:53:05;0.43;;;0.20;;
5646;SDS011;2845;48.626;9.362;2023-08-06T07:55:39;0.45;;;0.17;;
5646;SDS011;2845;48.626;9.362;2023-08-06T07:58:17;0.45;;;0.10;;
5646;SDS011;2845;48.626;9.362;2023-08-06T08:00:52;1.10;;;0.10;;
5646;SDS011;2845;48.626;9.362;2023-08-06T08:03:29;0.43;;;0.15;;
5646;SDS011;2845;48.626;9.362;2023-08-06T08:06:05;0.43;;;0.10;;
5646;SDS011;2845;48.626;9.362;2023-08-06T08:08:39;0.28;;;0.20;;
5646;SDS011;2845;48.626;9.362;2023-08-06T08:11:13;0.20;;;0.10;;
5646;SDS011;2845;48.626;9.362;2023-08-06T08:13:48;0.25;;;0.10;;
5646;SDS011;2845;48.626;9.362;2023-08-06T08:16:22;0.20;;;0.20;;
5646;SDS011;2845;48.626;9.362;2023-08-06T08:18:56;0.10;;;0.10;;
5646;SDS011;2845;48.626;9.362;2023-08-06T08:21:32;0.10;;;0.10;;
5646;SDS011;2845;48.626;9.362;2023-08-06T08:24:06;0.10;;;0.10;;
5646;SDS011;2845;48.626;9.362;2023-08-06T08:26:41;0.10;;;0.10;;
5646;SDS011;2845;48.626;9.362;2023-08-06T08:29:15;0.52;;;0.10;;
5646;SDS011;2845;48.626;9.362;2023-08-06T08:31:49;0.15;;;0.15;;
5646;SDS011;2845;48.626;9.362;2023-08-06T08:34:24;0.52;;;0.20;;
5646;SDS011;2845;48.626;9.362;2023-08-06T08:37:03;0.10;;;0.10;;
5646;SDS011;2845;48.626;9.362;2023-08-06T08:39:38;0.10;;;0.10;;
5646;SDS011;2845;48.626;9.362;2023-08-06T08:42:12;0.10;;;0.10;;
5646;SDS011;2845;48.626;9.362;2023-08-06T08:44:46;0.52;;;0.10;;
5646;SDS011;2845;48.626;9.362;2023-08-06T08:47:21;0.20;;;0.20;;
5646;SDS011;2845;48.626;9.362;2023-08-06T08:49:55;0.10;;;0.10;;
5646;SDS011;2845;48.626;9.362;2023-08-06T08:52:32;0.15;;;0.10;;
5646;SDS011;2845;48.626;9.362;2023-08-06T08:55:08;0.10;;;0.10;;
5646;SDS011;2845;48.626;9.362;2023-08-06T08:57:43;0.20;;;0.10;;
5646;SDS011;2845;48.626;9.362;2023-08-06T09:00:17;0.10;;;0.10;;
5646;SDS011;2845;48.626;9.362;2023-08-06T09:02:51;0.10;;;0.10;;
5646;SDS011;2845;48.626;9.362;2023-08-06T09:05:26;0.00;;;0.00;;
5646;SDS011;2845;48.626;9.362;2023-08-06T09:08:05;0.10;;;0.10;;
5646;SDS011;2845;48.626;9.362;2023-08-06T09:10:40;0.15;;;0.10;;
5646;SDS011;2845;48.626;9.362;2023-08-06T09:13:14;0.10;;;0.10;;
5646;SDS011;2845;48.626;9.362;2023-08-06T09:15:49;0.20;;;0.10;;
5646;SDS011;2845;48.626;9.362;2023-08-06T09:18:27;0.10;;;0.10;;
5646;SDS011;2845;48.626;9.362;2023-08-06T09:21:02;0.28;;;0.10;;
5646;SDS011;2845;48.626;9.362;2023-08-06T09:23:38;0.22;;;0.10;;
5646;SDS011;2845;48.626;9.362;2023-08-06T09:26:12;0.10;;;0.10;;
5646;SDS011;2845;48.626;9.362;2023-08-06T09:28:48;0.10;;;0.10;;
5646;SDS011;2845;48.626;9.362;2023-08-06T09:31:22;0.10;;;0.10;;
5646;SDS011;2845;48.626;9.362;2023-08-06T09:33:57;0.20;;;0.10;;
5646;SDS011;2845;48.626;9.362;2023-08-06T09:36:33;1.10;;;0.10;;
5646;SDS011;2845;48.626;9.362;2023-08-06T09:39:13;0.10;;;0.10;;
5646;SDS011;2845;48.626;9.362;2023-08-06T09:41:48;0.10;;;0.10;;
5646;SDS011;2845;48.626;9.362;2023-08-06T09:44:31;1.25;;;0.10;;
5646;SDS011;2845;48.626;9.362;2023-08-06T09:47:07;0.10;;;0.10;;
5646;SDS011;2845;48.626;9.362;2023-08-06T09:49:42;0.10;;;0.10;;
5646;SDS011;2845;48.626;9.362;2023-08-06T09:52:17;0.20;;;0.10;;
5646;SDS011;2845;48.626;9.362;2023-08-06T09:54:53;0.10;;;0.10;;
5646;SDS011;2845;48.626;9.362;2023-08-06T09:57:28;0.10;;;0.10;;
5646;SDS011;2845;48.626;9.362;2023-08-06T10:00:04;0.30;;;0.10;;
5646;SDS011;2845;48.626;9.362;2023-08-06T10:02:40;0.55;;;0.10;;
5646;SDS011;2845;48.626;9.362;2023-08-06T10:05:15;0.10;;;0.10;;
5646;SDS011;2845;48.626;9.362;2023-08-06T10:07:50;0.43;;;0.10;;
5646;SDS011;2845;48.626;9.362;2023-08-06T10:10:30;0.10;;;0.10;;
5646;SDS011;2845;48.626;9.362;2023-08-06T10:13:04;0.20;;;0.10;;
5646;SDS011;2845;48.626;9.362;2023-08-06T10:15:41;0.32;;;0.10;;
5646;SDS011;2845;48.626;9.362;2023-08-06T10:18:16;0.10;;;0.10;;
5646;SDS011;2845;48.626;9.362;2023-08-06T10:20:56;0.65;;;0.10;;
5646;SDS011;2845;48.626;9.362;2023-08-06T10:23:34;0.10;;;0.10;;
5646;SDS011;2845;48.626;9.362;2023-08-06T10:26:12;0.10;;;0.10;;
5646;SDS011;2845;48.626;9.362;2023-08-06T10:28:48;0.10;;;0.10;;
5646;SDS011;2845;48.626;9.362;2023-08-06T10:37:36;0.20;;;0.10;;
5646;SDS011;2845;48.626;9.362;2023-08-06T10:40:10;0.20;;;0.10;;
5646;SDS011;2845;48.626;9.362;2023-08-06T10:42:46;0.10;;;0.10;;
5646;SDS011;2845;48.626;9.362;2023-08-06T10:45:20;0.10;;;0.10;;
5646;SDS011;2845;48.626;9.362;2023-08-06T10:48:00;0.10;;;0.00;;
5646;SDS011;2845;48.626;9.362;2023-08-06T10:50:35;0.10;;;0.10;;
5646;SDS011;2845;48.626;9.362;2023-08-06T10:53:09;0.63;;;0.10;;
5646;SDS011;2845;48.626;9.362;2023-08-06T10:55:45;0.10;;;0.10;;
5646;SDS011;2845;48.626;9.362;2023-08-06T10:58:21;0.10;;;0.10;;
5646;SDS011;2845;48.626;9.362;2023-08-06T11:00:56;0.10;;;0.10;;
5646;SDS011;2845;48.626;9.362;2023-08-06T11:03:31;0.20;;;0.10;;
5646;SDS011;2845;48.626;9.362;2023-08-06T11:06:06;0.10;;;0.10;;
5646;SDS011;2845;48.626;9.362;2023-08-06T11:08:47;0.10;;;0.10;;
5646;SDS011;2845;48.626;9.362;2023-08-06T11:11:23;0.17;;;0.10;;
5646;SDS011;2845;48.626;9.362;2023-08-06T11:13:59;0.20;;;0.10;;
5646;SDS011;2845;48.626;9.362;2023-08-06T11:16:34;0.70;;;0.10;;
5646;SDS011;2845;48.626;9.362;2023-08-06T11:19:09;0.10;;;0.10;;
5646;SDS011;2845;48.626;9.362;2023-08-06T11:21:44;0.10;;;0.10;;
5646;SDS011;2845;48.626;9.362;2023-08-06T11:24:19;0.47;;;0.10;;
5646;SDS011;2845;48.626;9.362;2023-08-06T11:26:57;0.10;;;0.10;;
5646;SDS011;2845;48.626;9.362;2023-08-06T11:29:37;0.00;;;0.00;;
5646;SDS011;2845;48.626;9.362;2023-08-06T11:32:14;0.10;;;0.10;;
5646;SDS011;2845;48.626;9.362;2023-08-06T11:34:50;0.20;;;0.10;;
5646;SDS011;2845;48.626;9.362;2023-08-06T11:37:29;0.20;;;0.10;;
5646;SDS011;2845;48.626;9.362;2023-08-06T11:40:08;0.32;;;0.10;;
5646;SDS011;2845;48.626;9.362;2023-08-06T11:42:46;0.30;;;0.10;;
5646;SDS011;2845;48.626;9.362;2023-08-06T11:45:23;0.10;;;0.10;;
5646;SDS011;2845;48.626;9.362;2023-08-06T11:47:58;0.65;;;0.10;;
5646;SDS011;2845;48.626;9.362;2023-08-06T11:50:35;0.10;;;0.10;;
5646;SDS011;2845;48.626;9.362;2023-08-06T11:53:12;0.10;;;0.10;;
5646;SDS011;2845;48.626;9.362;2023-08-06T11:55:47;0.00;;;0.00;;
5646;SDS011;2845;48.626;9.362;2023-08-06T11:58:22;0.10;;;0.10;;
5646;SDS011;2845;48.626;9.362;2023-08-06T12:01:00;0.10;;;0.10;;
5646;SDS011;2845;48.626;9.362;2023-08-06T12:03:38;0.10;;;0.10;;
5646;SDS011;2845;48.626;9.362;2023-08-06T12:06:13;0.10;;;0.10;;
5646;SDS011;2845;48.626;9.362;2023-08-06T12:08:47;0.10;;;0.10;;
5646;SDS011;2845;48.626;9.362;2023-08-06T12:11:23;0.10;;;0.10;;
5646;SDS011;2845;48.626;9.362;2023-08-06T12:13:57;0.50;;;0.30;;
5646;SDS011;2845;48.626;9.362;2023-08-06T12:16:35;0.05;;;0.05;;
5646;SDS011;2845;48.626;9.362;2023-08-06T12:19:09;0.13;;;0.10;;
5646;SDS011;2845;48.626;9.362;2023-08-06T12:21:45;0.20;;;0.20;;
5646;SDS011;2845;48.626;9.362;2023-08-06T12:24:19;0.17;;;0.10;;
5646;SDS011;2845;48.626;9.362;2023-08-06T12:26:54;0.10;;;0.10;;
5646;SDS011;2845;48.626;9.362;2023-08-06T12:29:30;0.15;;;0.10;;
5646;SDS011;2845;48.626;9.362;2023-08-06T12:32:09;0.10;;;0.10;;
5646;SDS011;2845;48.626;9.362;2023-08-06T12:34:43;0.52;;;0.10;;
5646;SDS011;2845;48.626;9.362;2023-08-06T12:37:24;0.98;;;0.20;;
5646;SDS011;2845;48.626;9.362;2023-08-06T12:40:02;0.25;;;0.10;;
5646;SDS011;2845;48.626;9.362;2023-08-06T12:42:57;0.47;;;0.20;;
5646;SDS011;2845;48.626;9.362;2023-08-06T12:45:32;0.80;;;0.15;;
5646;SDS011;2845;48.626;9.362;2023-08-06T12:48:08;0.30;;;0.15;;
5646;SDS011;2845;48.626;9.362;2023-08-06T12:50:49;0.30;;;0.10;;
5646;SDS011;2845;48.626;9.362;2023-08-06T12:53:24;0.95;;;0.17;;
5646;SDS011;2845;48.626;9.362;2023-08-06T12:55:58;0.77;;;0.28;;
5646;SDS011;2845;48.626;9.362;2023-08-06T12:58:32;0.63;;;0.40;;
5646;SDS011;2845;48.626;9.362;2023-08-06T13:01:07;2.92;;;0.63;;
5646;SDS011;2845;48.626;9.362;2023-08-06T13:03:42;0.32;;;0.30;;
5646;SDS011;2845;48.626;9.362;2023-08-06T13:06:20;0.75;;;0.20;;
5646;SDS011;2845;48.626;9.362;2023-08-06T13:08:54;0.43;;;0.20;;
5646;SDS011;2845;48.626;9.362;2023-08-06T13:11:29;0.55;;;0.28;;
5646;SDS011;2845;48.626;9.362;2023-08-06T13:14:04;0.50;;;0.20;;
5646;SDS011;2845;48.626;9.362;2023-08-06T13:16:41;0.40;;;0.20;;
5646;SDS011;2845;48.626;9.362;2023-08-06T13:19:18;0.32;;;0.20;;
5646;SDS011;2845;48.626;9.362;2023-08-06T13:21:59;0.35;;;0.13;;
5646;SDS011;2845;48.626;9.362;2023-08-06T13:24:37;0.88;;;0.20;;
5646;SDS011;2845;48.626;9.362;2023-08-06T13:27:11;0.77;;;0.20;;
5646;SDS011;2845;48.626;9.362;2023-08-06T13:29:45;0.50;;;0.20;;
5646;SDS011;2845;48.626;9.362;2023-08-06T13:32:20;0.52;;;0.22;;
5646;SDS011;2845;48.626;9.362;2023-08-06T13:34:56;0.55;;;0.20;;
5646;SDS011;2845;48.626;9.362;2023-08-06T13:37:30;0.40;;;0.40;;
5646;SDS011;2845;48.626;9.362;2023-08-06T13:40:05;0.47;;;0.20;;
5646;SDS011;2845;48.626;9.362;2023-08-06T13:42:56;0.68;;;0.20;;
5646;SDS011;2845;48.626;9.362;2023-08-06T13:45:31;0.52;;;0.25;;
5646;SDS011;2845;48.626;9.362;2023-08-06T13:48:07;0.40;;;0.20;;
5646;SDS011;2845;48.626;9.362;2023-08-06T13:50:44;0.50;;;0.25;;
5646;SDS011;2845;48.626;9.362;2023-08-06T13:53:18;0.68;;;0.20;;
5646;SDS011;2845;48.626;9.362;2023-08-06T13:55:52;0.20;;;0.10;;
5646;SDS011;2845;48.626;9.362;2023-08-06T13:58:26;0.50;;;0.30;;
5646;SDS011;2845;48.626;9.362;2023-08-06T14:01:01;0.50;;;0.20;;
5646;SDS011;2845;48.626;9.362;2023-08-06T14:03:35;0.73;;;0.30;;
5646;SDS011;2845;48.626;9.362;2023-08-06T14:06:11;0.20;;;0.10;;
5646;SDS011;2845;48.626;9.362;2023-08-06T14:08:46;0.28;;;0.20;;
5646;SDS011;2845;48.626;9.362;2023-08-06T14:11:20;0.10;;;0.10;;
5646;SDS011;2845;48.626;9.362;2023-08-06T14:13:54;0.10;;;0.10;;
5646;SDS011;2845;48.626;9.362;2023-08-06T14:16:29;0.30;;;0.20;;
5646;SDS011;2845;48.626;9.362;2023-08-06T14:19:04;0.45;;;0.20;;
5646;SDS011;2845;48.626;9.362;2023-08-06T14:21:40;0.10;;;0.10;;
5646;SDS011;2845;48.626;9.362;2023-08-06T14:24:14;0.30;;;0.20;;
5646;SDS011;2845;48.626;9.362;2023-08-06T14:26:51;0.50;;;0.20;;
5646;SDS011;2845;48.626;9.362;2023-08-06T14:29:26;0.20;;;0.13;;
5646;SDS011;2845;48.626;9.362;2023-08-06T14:32:00;0.38;;;0.20;;
5646;SDS011;2845;48.626;9.362;2023-08-06T14:34:34;0.38;;;0.20;;
5646;SDS011;2845;48.626;9.362;2023-08-06T14:37:10;0.50;;;0.20;;
5646;SDS011;2845;48.626;9.362;2023-08-06T14:39:45;1.05;;;0.20;;
5646;SDS011;2845;48.626;9.362;2023-08-06T14:42:19;0.28;;;0.20;;
5646;SDS011;2845;48.626;9.362;2023-08-06T14:44:53;0.25;;;0.20;;
5646;SDS011;2845;48.626;9.362;2023-08-06T14:47:27;0.47;;;0.20;;
5646;SDS011;2845;48.626;9.362;2023-08-06T14:50:02;0.68;;;0.22;;
5646;SDS011;2845;48.626;9.362;2023-08-06T14:52:39;0.43;;;0.22;;
5646;SDS011;2845;48.626;9.362;2023-08-06T14:55:17;0.50;;;0.30;;
5646;SDS011;2845;48.626;9.362;2023-08-06T14:57:58;0.40;;;0.20;;
5646;SDS011;2845;48.626;9.362;2023-08-06T15:00:32;0.73;;;0.20;;
5646;SDS011;2845;48.626;9.362;2023-08-06T15:03:06;0.30;;;0.20;;
5646;SDS011;2845;48.626;9.362;2023-08-06T15:05:42;0.10;;;0.10;;
5646;SDS011;2845;48.626;9.362;2023-08-06T15:08:19;0.30;;;0.10;;
5646;SDS011;2845;48.626;9.362;2023-08-06T15:10:56;0.13;;;0.10;;
5646;SDS011;2845;48.626;9.362;2023-08-06T15:13:34;0.20;;;0.20;;
5646;SDS011;2845;48.626;9.362;2023-08-06T15:16:08;0.15;;;0.10;;
5646;SDS011;2845;48.626;9.362;2023-08-06T15:18:43;0.30;;;0.13;;
5646;SDS011;2845;48.626;9.362;2023-08-06T15:21:17;0.20;;;0.10;;
5646;SDS011;2845;48.626;9.362;2023-08-06T15:23:53;0.30;;;0.20;;
5646;SDS011;2845;48.626;9.362;2023-08-06T15:26:28;0.22;;;0.15;;
5646;SDS011;2845;48.626;9.362;2023-08-06T15:29:03;0.13;;;0.10;;
5646;SDS011;2845;48.626;9.362;2023-08-06T15:31:40;0.65;;;0.20;;
5646;SDS011;2845;48.626;9.362;2023-08-06T15:34:15;0.20;;;0.20;;
5646;SDS011;2845;48.626;9.362;2023-08-06T15:36:49;0.10;;;0.10;;
5646;SDS011;2845;48.626;9.362;2023-08-06T15:39:25;0.43;;;0.20;;
5646;SDS011;2845;48.626;9.362;2023-08-06T15:41:59;0.30;;;0.20;;
5646;SDS011;2845;48.626;9.362;2023-08-06T15:44:35;0.10;;;0.10;;
5646;SDS011;2845;48.626;9.362;2023-08-06T15:47:09;2.58;;;0.30;;
5646;SDS011;2845;48.626;9.362;2023-08-06T15:49:43;0.57;;;0.10;;
5646;SDS011;2845;48.626;9.362;2023-08-06T15:52:18;0.73;;;0.25;;
5646;SDS011;2845;48.626;9.362;2023-08-06T15:54:58;0.28;;;0.10;;
5646;SDS011;2845;48.626;9.362;2023-08-06T15:57:37;0.32;;;0.20;;
5646;SDS011;2845;48.626;9.362;2023-08-06T16:00:11;1.17;;;0.20;;
5646;SDS011;2845;48.626;9.362;2023-08-06T16:02:49;0.47;;;0.22;;
5646;SDS011;2845;48.626;9.362;2023-08-06T16:05:24;1.88;;;0.20;;
5646;SDS011;2845;48.626;9.362;2023-08-06T16:07:59;1.92;;;0.20;;
5646;SDS011;2845;48.626;9.362;2023-08-06T16:10:39;1.10;;;0.30;;
5646;SDS011;2845;48.626;9.362;2023-08-06T16:13:16;0.20;;;0.10;;